Time;durP1;ratioP1;P1;durP2;ratioP2;P2;SDS_P1;SDS_P2;PMS_P1;PMS_P2;Temp;Humidity;BMP_temperature;BMP_pressure;BME280_temperature;BME280_humidity;BME280_pressure;Samples;Min_cycle;Max_cycle;Signal;HPM_P1;HPM_P2
2021/10/20 00:00:34;;;;;;;5.50;3.80;;;;;;;10.82;71.70;99019.11;236003;1197;22420;-73
2021/10/20 00:05:51;;;;;;;5.00;3.80;;;;;;;11.07;70.70;99015.89;236020;1190;24050;-72
2021/10/20 00:10:54;;;;;;;6.90;4.40;;;;;;;11.24;70.27;99024.34;236215;1190;24027;-73
2021/10/20 00:15:58;;;;;;;6.60;3.80;;;;;;;11.34;69.74;99022.83;235973;1197;22465;-71
2021/10/20 00:21:05;;;;;;;4.40;3.70;;;;;;;11.44;68.83;99003.02;236038;1197;22558;-71
2021/10/20 00:26:11;;;;;;;6.10;4.30;;;;;;;11.54;68.70;99007.16;235839;1198;22459;-71
2021/10/20 00:31:18;;;;;;;4.20;3.60;;;;;;;11.58;68.34;99011.54;235879;1198;22614;-71
2021/10/20 00:36:21;;;;;;;6.30;3.70;;;;;;;11.60;68.44;98992.11;235768;1191;22434;-73
2021/10/20 00:41:28;;;;;;;4.80;4.00;;;;;;;11.63;68.35;98998.83;235982;1190;24053;-72
2021/10/20 00:46:32;;;;;;;4.90;3.80;;;;;;;11.68;68.06;98998.62;235926;1197;25279;-73
2021/10/20 00:51:50;;;;;;;4.80;3.60;;;;;;;11.76;67.77;98984.42;235688;1198;25185;-73
2021/10/20 00:56:53;;;;;;;4.40;3.90;;;;;;;11.83;67.38;98984.13;235777;1197;22782;-73
2021/10/20 01:01:57;;;;;;;4.70;4.00;;;;;;;11.89;67.41;98981.57;235949;1197;24158;-72
2021/10/20 01:07:11;;;;;;;6.40;3.90;;;;;;;11.90;67.14;98973.13;236050;1198;24073;-71
2021/10/20 01:12:21;;;;;;;5.40;4.30;;;;;;;11.89;67.24;98967.11;236050;1198;22419;-73
2021/10/20 01:17:25;;;;;;;6.30;3.70;;;;;;;11.93;67.15;98973.04;235768;1198;24091;-72
2021/10/20 01:22:28;;;;;;;7.10;4.10;;;;;;;11.96;67.22;98960.86;235918;1177;25180;-71
2021/10/20 01:27:31;;;;;;;4.90;4.20;;;;;;;11.98;67.04;98957.23;235882;1198;24063;-73
2021/10/20 01:32:34;;;;;;;6.30;3.50;;;;;;;12.00;67.31;98948.20;235914;1190;24249;-74
2021/10/20 01:37:38;;;;;;;5.70;4.10;;;;;;;12.03;67.26;98944.81;236073;1190;22459;-73
2021/10/20 01:42:54;;;;;;;8.50;4.10;;;;;;;12.07;67.13;98943.82;236160;1190;24068;-73
2021/10/20 01:48:17;;;;;;;6.10;4.90;;;;;;;12.13;67.11;98949.10;236290;1190;22487;-72
2021/10/20 01:53:20;;;;;;;5.90;4.00;;;;;;;12.19;67.05;98945.47;235912;1197;25194;-73
2021/10/20 01:58:23;;;;;;;5.00;3.70;;;;;;;12.21;67.20;98937.74;235835;1177;24158;-73
2021/10/20 02:03:27;;;;;;;6.40;4.90;;;;;;;12.23;67.12;98933.95;236057;1190;24072;-72
2021/10/20 02:08:38;;;;;;;5.40;4.40;;;;;;;12.23;67.15;98922.20;236103;1197;22439;-73
2021/10/20 02:13:41;;;;;;;6.90;4.60;;;;;;;12.23;67.19;98916.17;235806;1190;25192;-73
2021/10/20 02:18:44;;;;;;;9.60;4.60;;;;;;;12.19;67.18;98915.55;236117;1197;23009;-73
2021/10/20 02:23:47;;;;;;;5.50;4.40;;;;;;;12.09;67.50;98913.72;236159;1197;22488;-73
2021/10/20 02:28:49;;;;;;;5.30;4.30;;;;;;;12.00;67.83;98907.55;235835;1197;24028;-73
2021/10/20 02:33:51;;;;;;;6.90;4.30;;;;;;;11.91;68.16;98911.41;236109;1197;24917;-71
2021/10/20 02:39:02;;;;;;;5.80;4.30;;;;;;;11.84;68.67;98907.83;235949;1190;24052;-71
2021/10/20 02:44:05;;;;;;;5.50;4.30;;;;;;;11.82;68.77;98908.23;235895;1197;22447;-73
2021/10/20 02:49:08;;;;;;;5.20;4.20;;;;;;;11.89;69.02;98911.24;235868;1198;24193;-71
2021/10/20 02:54:11;;;;;;;5.70;4.50;;;;;;;11.96;68.85;98914.31;235818;1198;22417;-72
2021/10/20 02:59:13;;;;;;;9.90;4.70;;;;;;;12.06;68.90;98911.30;235829;1190;25299;-72
2021/10/20 03:04:16;;;;;;;7.20;4.40;;;;;;;12.16;68.78;98903.79;235754;1197;24048;-71
2021/10/20 03:09:18;;;;;;;5.90;4.70;;;;;;;12.22;69.04;98900.40;236034;1197;24063;-72
2021/10/20 03:14:34;;;;;;;6.20;4.50;;;;;;;12.28;69.12;98911.25;236264;1184;24049;-72
2021/10/20 03:19:37;;;;;;;7.00;4.60;;;;;;;12.32;68.94;98903.98;235885;1198;22563;-71
2021/10/20 03:24:40;;;;;;;7.30;4.40;;;;;;;12.37;68.90;98896.91;236024;1198;25197;-73
2021/10/20 03:29:43;;;;;;;4.80;3.80;;;;;;;12.40;68.89;98884.23;235994;1197;24158;-73
2021/10/20 03:34:46;;;;;;;6.10;4.30;;;;;;;12.43;68.88;98872.73;236020;1197;24576;-72
2021/10/20 03:39:48;;;;;;;5.00;4.10;;;;;;;12.47;69.04;98869.91;235915;1197;24109;-72
2021/10/20 03:44:51;;;;;;;7.00;4.20;;;;;;;12.49;69.25;98861.27;235922;1190;24152;-72
2021/10/20 03:50:02;;;;;;;5.60;4.20;;;;;;;12.50;69.52;98851.15;235898;1190;24041;-73
2021/10/20 03:55:25;;;;;;;5.40;4.40;;;;;;;12.54;69.94;98851.35;235911;1192;24038;-73
2021/10/20 04:00:28;;;;;;;7.70;4.80;;;;;;;12.55;70.38;98853.20;235957;1190;24078;-73
2021/10/20 04:05:30;;;;;;;4.50;4.10;;;;;;;12.57;70.79;98845.06;236039;1193;25194;-73
2021/10/20 04:10:33;;;;;;;6.30;4.50;;;;;;;12.56;71.09;98845.40;236080;1197;24053;-72
2021/10/20 04:15:36;;;;;;;7.40;4.10;;;;;;;12.50;71.59;98853.20;236028;1197;24043;-73
2021/10/20 04:20:39;;;;;;;4.20;3.50;;;;;;;12.41;72.54;98846.91;235797;1197;25925;-71
2021/10/20 04:25:42;;;;;;;5.70;3.70;;;;;;;12.38;73.16;98845.33;235906;1197;24012;-73
2021/10/20 04:30:44;;;;;;;6.10;4.00;;;;;;;12.36;73.84;98846.47;235975;1190;24107;-74
2021/10/20 04:35:47;;;;;;;5.10;4.20;;;;;;;12.34;74.30;98839.27;235882;1197;24168;-72
2021/10/20 04:40:49;;;;;;;6.70;4.00;;;;;;;12.30;75.19;98835.91;236013;1197;24126;-73
2021/10/20 04:45:54;;;;;;;5.30;4.40;;;;;;;12.28;75.87;98833.73;235828;1198;22421;-74
2021/10/20 04:50:56;;;;;;;5.50;3.70;;;;;;;12.29;76.46;98829.52;236015;1190;25081;-74
2021/10/20 04:56:11;;;;;;;5.50;3.60;;;;;;;12.30;76.68;98838.64;235923;1193;24191;-71
2021/10/20 05:01:26;;;;;;;6.50;3.50;;;;;;;12.33;76.98;98830.42;235913;1197;22549;-71
2021/10/20 05:06:30;;;;;;;4.10;3.50;;;;;;;12.36;77.98;98823.20;235851;1198;22686;-73
2021/10/20 05:11:37;;;;;;;3.60;2.90;;;;;;;12.38;78.37;98820.07;235869;1190;25007;-73
2021/10/20 05:16:41;;;;;;;5.00;3.20;;;;;;;12.36;78.76;98813.02;236012;1198;24037;-73
2021/10/20 05:21:45;;;;;;;5.10;3.30;;;;;;;12.34;78.78;98798.08;236196;1197;22452;-72
2021/10/20 05:27:00;;;;;;;6.50;3.20;;;;;;;12.32;79.13;98791.83;236112;1198;22432;-74
2021/10/20 05:32:07;;;;;;;6.80;3.60;;;;;;;12.32;79.42;98787.41;235981;1197;24063;-73
2021/10/20 05:37:10;;;;;;;6.70;3.50;;;;;;;12.34;79.47;98782.48;236198;1197;24040;-73
2021/10/20 05:42:13;;;;;;;5.00;3.10;;;;;;;12.36;79.62;98786.52;236098;1197;22473;-72
2021/10/20 05:47:16;;;;;;;5.60;4.20;;;;;;;12.39;79.76;98782.13;236693;1197;24101;-72
2021/10/20 05:52:32;;;;;;;4.30;3.80;;;;;;;12.40;79.93;98781.98;236425;1197;24085;-73
2021/10/20 05:57:41;;;;;;;6.50;4.30;;;;;;;12.42;79.86;98773.83;236663;1190;22416;-74
2021/10/20 06:03:05;;;;;;;5.60;3.70;;;;;;;12.45;79.66;98769.95;236365;1197;22571;-71
2021/10/20 06:08:08;;;;;;;6.90;4.40;;;;;;;12.49;80.13;98772.77;236676;1190;24081;-71
2021/10/20 06:13:20;;;;;;;6.30;3.60;;;;;;;12.55;79.98;98772.96;236701;1190;25086;-73
2021/10/20 06:18:42;;;;;;;4.30;3.50;;;;;;;12.61;79.83;98774.23;236584;1197;24718;-73
2021/10/20 06:23:51;;;;;;;6.30;3.20;;;;;;;12.68;79.64;98778.44;238067;1198;25181;-74
2021/10/20 06:28:58;;;;;;;4.90;3.20;;;;;;;12.75;79.45;98787.55;236707;1190;22533;-73
2021/10/20 06:34:20;;;;;;;3.80;3.10;;;;;;;12.85;79.18;98783.33;236387;1190;22443;-72
2021/10/20 06:39:34;;;;;;;3.90;3.50;;;;;;;12.96;78.92;98778.30;236534;1197;24532;-73
2021/10/20 06:44:41;;;;;;;4.70;3.30;;;;;;;13.08;78.59;98789.73;236452;1197;24055;-74
2021/10/20 06:49:45;;;;;;;4.90;3.40;;;;;;;13.18;78.19;98800.17;236722;1197;24101;-74
2021/10/20 06:55:04;;;;;;;4.70;3.20;;;;;;;13.27;77.87;98801.92;236731;1197;25258;-73
2021/10/20 07:00:07;;;;;;;5.00;3.40;;;;;;;13.36;77.46;98804.20;236485;1198;24002;-74
2021/10/20 07:05:10;;;;;;;4.10;3.50;;;;;;;13.48;77.09;98802.25;236443;1190;24105;-72
2021/10/20 07:10:32;;;;;;;4.20;3.30;;;;;;;13.61;76.78;98800.00;236427;1190;25175;-72
2021/10/20 07:15:36;;;;;;;7.60;3.40;;;;;;;13.77;76.21;98793.55;236552;1197;23041;-73
2021/10/20 07:20:38;;;;;;;5.40;3.80;;;;;;;13.94;75.80;98801.09;236534;1190;24069;-72
2021/10/20 07:25:47;;;;;;;5.60;4.10;;;;;;;14.12;75.10;98806.17;236433;1190;24049;-73
2021/10/20 07:30:50;;;;;;;6.30;4.00;;;;;;;14.28;74.26;98802.02;236587;1197;22414;-73
2021/10/20 07:35:53;;;;;;;6.40;3.60;;;;;;;14.39;73.79;98803.55;237053;1190;22438;-73
2021/10/20 07:41:10;;;;;;;5.10;4.00;;;;;;;14.53;73.64;98800.28;237753;1191;22439;-72
2021/10/20 07:46:22;;;;;;;7.70;4.10;;;;;;;14.68;72.81;98796.60;236831;1190;22837;-74
2021/10/20 07:51:26;;;;;;;5.60;3.60;;;;;;;14.77;72.16;98797.30;237534;1190;24043;-72
2021/10/20 07:56:35;;;;;;;8.00;3.50;;;;;;;14.89;71.64;98800.62;236733;1182;24187;-72
2021/10/20 08:01:38;;;;;;;6.50;3.70;;;;;;;14.98;71.60;98793.88;236876;1192;22476;-72
2021/10/20 08:06:42;;;;;;;6.00;3.60;;;;;;;15.11;71.20;98795.66;236487;1197;24257;-74
2021/10/20 08:11:44;;;;;;;7.10;3.30;;;;;;;15.16;70.55;98790.27;236573;1190;22892;-73
2021/10/20 08:16:48;;;;;;;5.20;3.70;;;;;;;15.20;70.18;98790.23;236518;1190;22523;-72
2021/10/20 08:21:51;;;;;;;6.10;3.90;;;;;;;15.28;69.47;98779.89;236477;1198;25304;-74
2021/10/20 08:26:54;;;;;;;6.10;3.60;;;;;;;15.36;69.51;98767.91;236866;1197;22591;-74
2021/10/20 08:31:56;;;;;;;6.00;4.40;;;;;;;15.46;69.59;98758.15;237827;1190;24071;-75
2021/10/20 08:37:12;;;;;;;5.90;3.50;;;;;;;15.58;69.61;98763.14;237102;1190;22426;-75
2021/10/20 08:42:16;;;;;;;5.60;3.60;;;;;;;15.58;68.50;98766.23;236676;1189;24261;-73
2021/10/20 08:47:39;;;;;;;7.60;4.40;;;;;;;15.38;67.40;98755.11;236649;1190;24038;-74
2021/10/20 08:52:42;;;;;;;6.20;3.90;;;;;;;15.21;68.21;98738.35;236591;1190;22444;-73
2021/10/20 08:57:46;;;;;;;7.10;4.40;;;;;;;15.10;68.26;98743.21;236629;1198;24185;-74
2021/10/20 09:02:50;;;;;;;3.80;3.40;;;;;;;15.15;68.35;98735.24;236629;1190;25000;-74
2021/10/20 09:07:55;;;;;;;5.80;4.30;;;;;;;15.38;67.70;98742.00;236684;1198;22456;-74
2021/10/20 09:13:00;;;;;;;6.00;4.00;;;;;;;15.60;67.15;98736.98;236733;1198;22523;-73
2021/10/20 09:18:11;;;;;;;6.10;4.00;;;;;;;15.82;66.33;98727.02;236885;1197;22440;-75
2021/10/20 09:23:18;;;;;;;4.70;3.50;;;;;;;16.04;65.23;98717.95;238432;1198;22894;-74
2021/10/20 09:28:33;;;;;;;6.30;4.10;;;;;;;16.30;65.25;98713.70;237971;1190;24006;-74
2021/10/20 09:33:51;;;;;;;5.50;3.70;;;;;;;16.60;64.52;98706.08;237649;1190;22901;-74
2021/10/20 09:38:56;;;;;;;6.80;4.70;;;;;;;16.84;63.97;98712.60;237077;1190;24194;-73
2021/10/20 09:44:19;;;;;;;4.80;4.00;;;;;;;17.03;62.26;98709.18;236564;1190;24059;-75
2021/10/20 09:49:23;;;;;;;6.20;3.90;;;;;;;17.06;60.35;98702.12;237697;1198;24117;-74
2021/10/20 09:54:28;;;;;;;7.00;4.60;;;;;;;17.12;60.27;98697.27;237590;1197;22496;-74
2021/10/20 09:59:34;;;;;;;5.20;3.90;;;;;;;17.24;59.81;98689.67;237814;1190;22449;-74
2021/10/20 10:04:50;;;;;;;5.20;4.20;;;;;;;17.34;59.71;98682.31;236747;1198;23971;-73
2021/10/20 10:10:13;;;;;;;4.90;3.60;;;;;;;17.49;58.82;98680.29;237215;1193;24069;-75
2021/10/20 10:15:18;;;;;;;5.00;3.90;;;;;;;17.63;59.46;98668.82;237578;1190;22555;-75
2021/10/20 10:20:29;;;;;;;5.20;3.80;;;;;;;17.78;58.45;98659.08;237314;1192;22538;-74
2021/10/20 10:25:39;;;;;;;6.10;5.00;;;;;;;17.86;56.46;98654.05;237153;1190;22507;-75
2021/10/20 10:30:49;;;;;;;5.90;4.40;;;;;;;17.90;55.00;98647.90;236203;1193;22419;-75
2021/10/20 10:36:01;;;;;;;;;;;;;;;17.91;54.46;98633.26;236934;1197;22451;-73
2021/10/20 10:41:21;;;;;;;4.80;4.10;;;;;;;17.91;54.88;98619.47;236978;1190;22446;-73
2021/10/20 10:46:24;;;;;;;5.30;4.70;;;;;;;18.13;55.01;98614.86;237106;1193;22900;-74
2021/10/20 10:51:27;;;;;;;4.40;3.70;;;;;;;18.29;52.77;98602.69;237082;1197;22495;-73
2021/10/20 10:56:30;;;;;;;4.30;3.60;;;;;;;18.33;52.18;98587.84;236631;1197;22531;-73
2021/10/20 11:01:43;;;;;;;6.10;3.60;;;;;;;18.29;52.15;98583.77;237548;1197;24040;-74
2021/10/20 11:06:51;;;;;;;5.30;4.20;;;;;;;18.19;51.79;98576.83;236874;1190;25276;-72
2021/10/20 11:11:55;;;;;;;5.70;3.50;;;;;;;18.21;52.15;98567.81;236821;1193;22495;-74
2021/10/20 11:17:05;;;;;;;6.00;4.00;;;;;;;18.45;52.70;98553.45;236459;1197;23135;-74
2021/10/20 11:22:08;;;;;;;5.60;3.30;;;;;;;18.72;51.04;98541.63;236699;1197;26196;-74
2021/10/20 11:27:12;;;;;;;4.30;3.80;;;;;;;18.89;50.84;98532.86;236464;1198;24691;-74
2021/10/20 11:32:17;;;;;;;5.00;2.90;;;;;;;18.99;50.08;98530.06;236848;1190;24158;-74
2021/10/20 11:37:23;;;;;;;3.80;3.40;;;;;;;19.01;49.58;98516.46;236587;1190;23651;-75
2021/10/20 11:42:28;;;;;;;3.90;3.50;;;;;;;19.02;50.68;98506.09;236601;1190;22943;-73
2021/10/20 11:47:32;;;;;;;4.50;3.70;;;;;;;19.09;49.75;98496.64;236354;1190;25111;-74
2021/10/20 11:52:35;;;;;;;5.90;3.70;;;;;;;19.13;49.46;98492.48;236158;1190;24344;-76
2021/10/20 11:57:44;;;;;;;6.80;3.90;;;;;;;19.16;49.69;98479.50;236037;1197;23441;-76
2021/10/20 12:02:49;;;;;;;4.40;3.50;;;;;;;19.11;49.47;98472.65;236376;1190;24072;-81
2021/10/20 12:08:08;;;;;;;3.50;3.00;;;;;;;19.11;50.31;98470.46;236199;1190;24035;-82
2021/10/20 12:13:24;;;;;;;4.80;3.40;;;;;;;19.15;50.27;98453.68;236118;1197;23514;-80
2021/10/20 12:18:45;;;;;;;5.10;3.80;;;;;;;19.18;48.77;98452.64;236221;1197;25294;-76
2021/10/20 12:24:01;;;;;;;5.30;3.60;;;;;;;19.13;48.63;98446.80;236401;1177;24162;-75
2021/10/20 12:29:09;;;;;;;4.70;3.70;;;;;;;19.01;48.76;98444.60;235852;1198;22439;-76
2021/10/20 12:34:16;;;;;;;5.10;3.50;;;;;;;18.86;49.96;98439.64;236234;1197;24010;-75
2021/10/20 12:39:19;;;;;;;3.30;3.00;;;;;;;18.69;50.96;98434.19;236246;1190;25159;-75
2021/10/20 12:44:23;;;;;;;5.10;3.60;;;;;;;18.63;51.20;98424.74;236305;1190;22492;-75
2021/10/20 12:49:39;;;;;;;4.60;3.80;;;;;;;18.94;51.98;98412.53;236468;1190;25276;-74
2021/10/20 12:54:49;;;;;;;3.70;3.10;;;;;;;19.35;50.54;98409.02;236375;1190;25341;-75
2021/10/20 12:59:52;;;;;;;4.10;3.40;;;;;;;19.67;48.11;98395.30;236575;1190;22553;-74
2021/10/20 13:04:56;;;;;;;5.00;3.30;;;;;;;19.75;48.21;98382.35;236363;1190;24159;-74
2021/10/20 13:09:59;;;;;;;5.10;3.80;;;;;;;19.76;47.70;98380.81;236221;1197;22521;-73
2021/10/20 13:15:05;;;;;;;3.60;3.20;;;;;;;19.69;48.41;98372.69;236035;1198;23174;-74
2021/10/20 13:20:11;;;;;;;4.20;3.20;;;;;;;19.58;48.96;98356.88;236315;1192;24117;-74
2021/10/20 13:25:26;;;;;;;4.30;3.20;;;;;;;19.44;48.91;98347.27;236401;1198;25181;-74
2021/10/20 13:30:42;;;;;;;8.30;5.70;;;;;;;19.25;49.39;98346.04;236204;1193;22790;-74
2021/10/20 13:35:46;;;;;;;6.10;4.90;;;;;;;19.15;49.88;98334.98;236389;1193;23542;-74
2021/10/20 13:40:52;;;;;;;26.80;19.60;;;;;;;19.16;50.01;98325.54;236194;1198;22459;-75
2021/10/20 13:45:54;;;;;;;7.30;5.50;;;;;;;19.31;50.04;98320.17;236366;1190;25222;-74
2021/10/20 13:50:57;;;;;;;4.50;3.90;;;;;;;19.47;49.44;98316.61;236399;1197;22464;-75
2021/10/20 13:56:00;;;;;;;6.00;4.40;;;;;;;19.49;48.75;98314.94;236132;1197;22495;-75
2021/10/20 14:01:10;;;;;;;4.10;3.50;;;;;;;19.44;48.47;98312.83;236461;1190;22917;-73
2021/10/20 14:06:20;;;;;;;6.60;4.30;;;;;;;19.37;47.61;98320.92;236461;1196;25191;-75
2021/10/20 14:11:31;;;;;;;4.10;2.90;;;;;;;19.26;47.34;98315.73;236475;1190;24059;-73
2021/10/20 14:16:38;;;;;;;3.90;3.20;;;;;;;19.14;47.66;98315.19;236482;1198;22721;-74
2021/10/20 14:21:42;;;;;;;4.70;4.00;;;;;;;19.02;48.17;98320.67;236005;1190;24181;-74
2021/10/20 14:26:45;;;;;;;5.70;5.10;;;;;;;18.86;48.42;98325.20;236276;1197;22417;-73
2021/10/20 14:31:50;;;;;;;7.20;3.60;;;;;;;18.65;48.19;98311.86;236655;1190;24075;-74
2021/10/20 14:36:53;;;;;;;5.20;4.10;;;;;;;18.43;48.96;98299.50;235853;1198;25227;-75
2021/10/20 14:41:57;;;;;;;5.00;4.10;;;;;;;18.20;49.52;98283.64;235979;1197;24220;-73
2021/10/20 14:47:00;;;;;;;5.30;3.60;;;;;;;18.01;49.73;98273.58;236154;1191;25187;-74
2021/10/20 14:52:02;;;;;;;5.20;3.90;;;;;;;17.83;50.21;98271.34;235704;1190;22425;-72
2021/10/20 14:57:07;;;;;;;5.90;4.10;;;;;;;17.65;50.53;98262.67;235891;1198;24184;-74
2021/10/20 15:02:11;;;;;;;6.30;4.30;;;;;;;17.48;51.02;98238.16;235788;1197;24389;-73
2021/10/20 15:07:16;;;;;;;7.20;5.10;;;;;;;17.27;51.47;98222.79;235650;1197;24689;-73
2021/10/20 15:12:39;;;;;;;7.10;5.00;;;;;;;17.06;51.74;98214.25;235543;1190;22435;-73
2021/10/20 15:17:43;;;;;;;8.70;5.10;;;;;;;16.94;52.18;98221.33;235942;1190;24078;-72
2021/10/20 15:22:45;;;;;;;10.80;7.20;;;;;;;16.82;52.58;98225.46;236025;1197;24770;-73
2021/10/20 15:27:48;;;;;;;11.30;8.30;;;;;;;16.73;52.86;98235.64;235815;1197;25148;-74
2021/10/20 15:32:50;;;;;;;8.00;5.90;;;;;;;16.63;53.14;98236.20;235793;1198;24082;-73
2021/10/20 15:37:57;;;;;;;8.00;5.60;;;;;;;16.50;53.51;98235.36;235742;1190;24900;-73
2021/10/20 15:43:07;;;;;;;8.30;5.50;;;;;;;16.35;53.94;98236.91;235736;1190;25210;-74
2021/10/20 15:48:12;;;;;;;9.20;5.90;;;;;;;16.19;54.39;98236.50;235762;1190;22467;-74
2021/10/20 15:53:15;;;;;;;9.30;6.20;;;;;;;16.05;54.78;98230.35;235780;1197;22432;-74
2021/10/20 15:58:31;;;;;;;8.60;6.30;;;;;;;15.93;55.10;98229.77;235867;1193;22562;-73
2021/10/20 16:03:55;;;;;;;10.00;6.90;;;;;;;15.83;55.26;98221.46;235839;1197;22449;-74
2021/10/20 16:08:57;;;;;;;8.40;6.40;;;;;;;15.74;55.36;98223.27;235838;1197;24092;-72
2021/10/20 16:14:01;;;;;;;6.90;5.60;;;;;;;15.67;55.58;98217.38;235532;1197;24086;-73
2021/10/20 16:19:06;;;;;;;11.40;6.90;;;;;;;15.57;55.69;98215.36;235854;1197;25202;-73
2021/10/20 16:24:08;;;;;;;10.10;6.70;;;;;;;15.44;55.83;98211.16;235826;1198;22441;-73
2021/10/20 16:29:11;;;;;;;11.00;7.20;;;;;;;15.30;56.18;98212.82;235745;1192;24136;-74
2021/10/20 16:34:14;;;;;;;10.40;7.70;;;;;;;15.16;56.36;98222.15;235597;1197;23981;-73
2021/10/20 16:39:16;;;;;;;10.70;7.70;;;;;;;15.03;56.54;98226.88;235756;1190;25204;-72
2021/10/20 16:44:20;;;;;;;10.80;7.40;;;;;;;14.92;56.65;98227.08;235757;1197;24081;-73
2021/10/20 16:49:23;;;;;;;10.10;7.10;;;;;;;14.80;56.84;98220.86;235809;1193;25182;-74
2021/10/20 16:54:25;;;;;;;12.70;8.10;;;;;;;14.73;56.70;98209.73;235702;1184;24207;-73
2021/10/20 16:59:28;;;;;;;13.60;8.30;;;;;;;14.70;56.75;98222.62;235810;1190;24101;-74
2021/10/20 17:04:30;;;;;;;12.20;7.40;;;;;;;14.63;56.78;98238.58;235700;1190;24075;-73
2021/10/20 17:09:33;;;;;;;11.40;8.30;;;;;;;14.53;56.95;98241.97;235556;1197;25160;-74
2021/10/20 17:14:37;;;;;;;12.40;8.20;;;;;;;14.45;56.92;98230.04;235693;1197;24204;-71
2021/10/20 17:19:39;;;;;;;10.50;7.40;;;;;;;14.41;56.87;98227.73;235851;1197;22429;-75
2021/10/20 17:24:42;;;;;;;11.10;7.40;;;;;;;14.43;56.68;98222.80;235824;1197;22464;-74
2021/10/20 17:29:44;;;;;;;9.50;6.70;;;;;;;14.45;56.47;98223.96;235620;1182;22435;-74
2021/10/20 17:34:47;;;;;;;9.80;6.50;;;;;;;14.50;56.26;98228.69;235924;1197;24056;-72
2021/10/20 17:39:49;;;;;;;10.10;6.60;;;;;;;14.49;56.34;98220.26;235659;1190;24040;-74
2021/10/20 17:45:20;;;;;;;11.00;7.10;;;;;;;14.45;56.15;98212.17;235781;1197;24092;-73
2021/10/20 17:50:37;;;;;;;10.00;7.30;;;;;;;14.41;56.20;98215.88;235876;1197;22556;-72
2021/10/20 17:55:40;;;;;;;9.40;6.50;;;;;;;14.38;55.87;98219.63;235680;1198;24045;-73
2021/10/20 18:00:43;;;;;;;10.10;7.30;;;;;;;14.37;55.75;98207.88;235661;1191;24075;-74
2021/10/20 18:05:46;;;;;;;9.40;6.60;;;;;;;14.35;55.67;98209.89;235742;1198;24014;-74
2021/10/20 18:10:51;;;;;;;8.40;6.60;;;;;;;14.36;55.46;98210.45;235711;1198;24054;-74
2021/10/20 18:15:55;;;;;;;9.40;6.80;;;;;;;14.37;55.17;98211.26;235642;1197;24295;-74
2021/10/20 18:20:57;;;;;;;10.60;6.10;;;;;;;14.39;55.09;98212.25;235625;1198;24177;-73
2021/10/20 18:26:01;;;;;;;8.90;6.00;;;;;;;14.38;54.98;98199.37;235650;1197;24188;-73
2021/10/20 18:31:20;;;;;;;9.10;6.40;;;;;;;14.41;54.84;98190.32;235634;1198;24110;-74
2021/10/20 18:36:23;;;;;;;9.20;6.60;;;;;;;14.45;54.73;98178.43;235306;1191;24044;-72
2021/10/20 18:41:40;;;;;;;13.30;7.90;;;;;;;14.47;54.70;98167.67;235607;1198;24052;-74
2021/10/20 18:46:56;;;;;;;8.40;6.20;;;;;;;14.48;54.61;98155.93;235604;1198;24108;-74
2021/10/20 18:52:19;;;;;;;7.80;6.20;;;;;;;14.51;54.33;98151.65;235717;1197;24063;-74
2021/10/20 18:57:23;;;;;;;8.50;5.70;;;;;;;14.55;54.36;98154.42;235987;1190;24053;-74
2021/10/20 19:02:26;;;;;;;9.30;6.30;;;;;;;14.57;54.29;98151.33;235593;1192;22583;-75
2021/10/20 19:07:29;;;;;;;7.00;5.90;;;;;;;14.58;54.31;98149.58;235666;1198;22509;-73
2021/10/20 19:12:32;;;;;;;9.10;6.50;;;;;;;14.59;54.30;98151.33;235875;1192;24046;-72
2021/10/20 19:17:48;;;;;;;7.90;6.00;;;;;;;14.58;54.49;98146.02;235896;1196;24067;-74
2021/10/20 19:22:52;;;;;;;7.70;6.20;;;;;;;14.56;54.57;98157.20;235881;1197;26151;-72
2021/10/20 19:27:56;;;;;;;9.00;6.10;;;;;;;14.53;54.86;98158.09;235901;1198;24257;-74
2021/10/20 19:32:59;;;;;;;11.10;7.30;;;;;;;14.48;54.85;98158.85;235848;1198;22474;-75
2021/10/20 19:38:03;;;;;;;9.10;6.90;;;;;;;14.48;55.12;98148.89;235744;1190;24337;-72
2021/10/20 19:43:06;;;;;;;9.20;6.30;;;;;;;14.46;55.03;98147.23;235846;1197;22552;-75
2021/10/20 19:48:10;;;;;;;8.80;6.80;;;;;;;14.48;55.25;98147.92;235642;1193;24047;-73
2021/10/20 19:53:12;;;;;;;9.00;6.20;;;;;;;14.45;55.30;98124.92;235786;1193;24065;-74
2021/10/20 19:58:15;;;;;;;12.90;7.40;;;;;;;14.39;55.51;98101.80;235729;1197;24037;-73
2021/10/20 20:03:17;;;;;;;10.50;6.60;;;;;;;14.34;55.68;98090.45;235799;1190;24044;-74
2021/10/20 20:08:20;;;;;;;9.20;7.00;;;;;;;14.28;55.75;98072.77;235966;1197;22874;-72
2021/10/20 20:13:22;;;;;;;8.20;6.30;;;;;;;14.23;55.96;98065.16;236087;1190;24101;-73
2021/10/20 20:18:30;;;;;;;8.60;6.20;;;;;;;14.18;55.95;98067.95;235809;1190;22393;-74
2021/10/20 20:23:45;;;;;;;10.40;6.80;;;;;;;14.15;56.06;98065.98;235808;1198;24049;-74
2021/10/20 20:28:49;;;;;;;8.80;5.90;;;;;;;14.12;56.10;98080.02;235877;1197;25029;-73
2021/10/20 20:33:52;;;;;;;9.60;6.80;;;;;;;14.10;56.15;98094.86;235963;1184;24107;-74
2021/10/20 20:38:54;;;;;;;9.40;6.70;;;;;;;14.09;56.20;98091.44;235729;1197;22474;-74
2021/10/20 20:44:05;;;;;;;8.00;6.10;;;;;;;14.07;56.26;98085.61;235780;1197;22457;-74
2021/10/20 20:49:08;;;;;;;8.80;6.20;;;;;;;14.00;56.38;98073.58;235781;1198;24124;-74
2021/10/20 20:54:10;;;;;;;12.10;7.40;;;;;;;13.94;56.57;98071.21;235675;1198;22476;-73
2021/10/20 20:59:13;;;;;;;9.30;6.00;;;;;;;13.89;56.83;98075.55;235924;1198;22437;-72
2021/10/20 21:04:18;;;;;;;10.20;7.10;;;;;;;13.83;56.90;98072.89;235872;1197;24251;-74
2021/10/20 21:09:22;;;;;;;11.50;7.20;;;;;;;13.77;57.14;98054.89;235754;1197;25010;-74
2021/10/20 21:14:26;;;;;;;12.10;7.50;;;;;;;13.73;57.35;98053.48;235938;1198;24085;-74
2021/10/20 21:19:28;;;;;;;12.30;7.60;;;;;;;13.67;57.55;98044.59;235766;1197;24085;-73
2021/10/20 21:24:38;;;;;;;10.00;6.80;;;;;;;13.61;57.74;98025.04;235880;1190;22511;-74
2021/10/20 21:30:04;;;;;;;11.40;6.90;;;;;;;13.53;57.92;98022.02;235814;1198;22422;-74
2021/10/20 21:35:14;;;;;;;9.60;7.10;;;;;;;13.49;58.02;98016.30;235856;1190;22420;-72
2021/10/20 21:40:50;;;;;;;10.00;7.00;;;;;;;13.45;58.24;98005.79;235710;1198;25181;-73
2021/10/20 21:46:11;;;;;;;11.70;7.30;;;;;;;13.35;58.44;97985.40;235851;1190;26146;-74
2021/10/20 21:51:15;;;;;;;10.60;7.70;;;;;;;13.25;58.57;97951.14;235945;1197;23725;-75
2021/10/20 21:56:19;;;;;;;9.70;7.60;;;;;;;13.16;58.83;97926.20;235933;1197;24992;-74
2021/10/20 22:01:22;;;;;;;10.30;7.80;;;;;;;13.04;59.05;97922.56;235893;1197;22519;-72
2021/10/20 22:06:26;;;;;;;13.60;8.00;;;;;;;12.93;59.31;97933.75;235743;1197;25167;-72
2021/10/20 22:11:29;;;;;;;11.20;7.70;;;;;;;12.83;59.54;97942.34;235797;1197;22436;-74
2021/10/20 22:16:33;;;;;;;13.30;7.20;;;;;;;12.73;59.59;97930.27;235753;1198;26143;-73
2021/10/20 22:21:38;;;;;;;13.20;7.60;;;;;;;12.64;59.82;97921.39;235787;1190;24079;-74
2021/10/20 22:26:41;;;;;;;12.50;8.30;;;;;;;12.57;60.27;97908.70;235835;1198;24054;-74
2021/10/20 22:31:43;;;;;;;13.30;8.60;;;;;;;12.49;60.39;97902.92;235996;1197;24071;-74
2021/10/20 22:36:46;;;;;;;13.50;9.30;;;;;;;12.40;60.52;97902.92;235710;1197;25140;-73
2021/10/20 22:41:49;;;;;;;15.20;9.70;;;;;;;12.29;60.77;97910.45;235816;1198;24042;-74
2021/10/20 22:46:54;;;;;;;14.90;9.50;;;;;;;12.16;60.88;97900.13;235768;1197;22437;-74
2021/10/20 22:51:57;;;;;;;13.40;9.10;;;;;;;12.06;61.13;97892.09;235723;1190;25253;-74
2021/10/20 22:57:01;;;;;;;18.20;9.90;;;;;;;11.95;61.24;97898.72;235588;1190;24012;-74
2021/10/20 23:02:12;;;;;;;15.50;9.40;;;;;;;11.79;61.53;97890.72;235602;1184;22464;-72
2021/10/20 23:07:34;;;;;;;15.80;9.90;;;;;;;11.68;61.96;97890.22;235743;1190;22418;-73
2021/10/20 23:12:37;;;;;;;12.50;9.00;;;;;;;11.60;62.42;97895.40;235706;1197;25007;-74
2021/10/20 23:17:48;;;;;;;14.30;9.80;;;;;;;11.54;62.85;97886.25;235638;1197;24145;-74
2021/10/20 23:23:11;;;;;;;14.90;9.00;;;;;;;11.49;63.09;97895.11;235495;1190;24065;-74
2021/10/20 23:28:13;;;;;;;13.60;9.00;;;;;;;11.42;63.07;97891.46;235595;1190;24970;-73
2021/10/20 23:33:20;;;;;;;15.00;8.70;;;;;;;11.32;63.21;97895.63;235809;1197;24083;-74
2021/10/20 23:38:22;;;;;;;11.80;8.80;;;;;;;11.20;63.35;97888.83;235943;1193;26173;-72
2021/10/20 23:43:26;;;;;;;13.60;8.80;;;;;;;11.11;63.62;97884.22;235595;1174;24053;-74